Pagrindinis puslapis
METAR-TAF:

METAR-TAF

Oro uostai :

Kazvinas, Iranas

platuma: 36-15N, ilguma: 050-00E, Aukštis: 1278 m

Dabartinis oras

Ataskaita buvo paskelbta 1 valandą ir 40 minutes, ne 17:00 UTC
Vėjas 6 kt iš Rytų/Pietryčių
Temperatūra 4°C
Drėgmė 41%
Slėgis 1023 hPa
Matomumas 10 km arba daugiau
Su prošvaistėmis ne aukštis 4000 ft
Apsiniaukę ne aukštis 12000 ft

METAR: OIIK 161700Z 12006KT 9999 BKN040 OVC120 04/M08 Q1023

Laikas: 22:10 (18:40 UTC)


TAF: trūkstamas

Orai ataskaitas ir orų prognozės (METAR, TAF).

turimą stotys yra geltonos ir raudonos taškus žemėlapyje.

Perkelti pele per norėdami pamatyti stoties vardą.

Tada spustelėkite, norėdami matyti oro stebėjimo ir prognozės.

Norėdami pakeisti žemėlapį: spustelėkite ant žalios mygtukų su juodo kryžiaus žemyn,; žalią mygtuką su brūkšneliu, jei norite nutolinti; arba žalių rodyklių gretimoms žemėlapius.


METAR-TAF: